Time;durP1;ratioP1;P1;durP2;ratioP2;P2;SDS_P1;SDS_P2;PMS_P1;PMS_P2;Temp;Humidity;BMP_temperature;BMP_pressure;BME280_temperature;BME280_humidity;BME280_pressure;Samples;Min_cycle;Max_cycle;Signal;HPM_P1;HPM_P2
2021/08/31 00:01:31;;;;;;;42.87;20.27;;;;;;;12.09;100.00;94089.25;5074385;28;20557;-80
2021/08/31 00:03:57;;;;;;;43.53;20.33;;;;;;;12.10;100.00;94098.69;5074676;28;20211;-80
2021/08/31 00:06:23;;;;;;;47.13;21.80;;;;;;;12.09;100.00;94099.72;5074418;28;20206;-79
2021/08/31 00:08:50;;;;;;;50.45;22.08;;;;;;;12.05;100.00;94097.72;5074323;28;20875;-80
2021/08/31 00:11:16;;;;;;;51.73;26.27;;;;;;;12.08;100.00;94097.31;5073348;28;20470;-79
2021/08/31 00:13:43;;;;;;;48.20;23.27;;;;;;;12.11;100.00;94102.16;5074305;28;20562;-79
2021/08/31 00:16:13;;;;;;;41.40;20.20;;;;;;;12.14;100.00;94102.53;5074141;28;20210;-79
2021/08/31 00:18:42;;;;;;;44.83;22.00;;;;;;;12.07;100.00;94100.91;5074380;28;20198;-79
2021/08/31 00:21:11;;;;;;;49.03;21.65;;;;;;;12.03;100.00;94098.69;5074326;28;20209;-79
2021/08/31 00:23:40;;;;;;;50.17;21.17;;;;;;;12.01;100.00;94097.31;5074233;28;20203;-82
2021/08/31 00:26:06;;;;;;;51.57;20.97;;;;;;;12.00;100.00;94099.09;5074106;28;20209;-80
2021/08/31 00:28:34;;;;;;;51.50;22.38;;;;;;;12.00;100.00;94101.72;5073786;28;20199;-80
2021/08/31 00:31:01;;;;;;;52.10;22.33;;;;;;;12.01;100.00;94105.94;5074187;28;20199;-80
2021/08/31 00:33:29;;;;;;;53.27;23.37;;;;;;;12.01;100.00;94105.94;5074060;28;20199;-80
2021/08/31 00:35:57;;;;;;;51.13;22.10;;;;;;;12.00;100.00;94108.78;5073836;28;20199;-79
2021/08/31 00:38:23;;;;;;;52.43;23.37;;;;;;;11.98;100.00;94118.63;5073881;28;20199;-78
2021/08/31 00:40:50;;;;;;;41.85;20.90;;;;;;;12.04;100.00;94107.38;5073919;28;20284;-79
2021/08/31 00:43:18;;;;;;;43.80;20.73;;;;;;;12.03;100.00;94111.00;5073671;28;20203;-79
2021/08/31 00:45:44;;;;;;;40.23;20.90;;;;;;;12.05;100.00;94108.97;5073586;28;20265;-79
2021/08/31 00:48:10;;;;;;;46.97;22.40;;;;;;;12.01;100.00;94110.38;5073373;28;20285;-82
2021/08/31 00:50:39;;;;;;;47.15;22.17;;;;;;;12.06;100.00;94110.59;5073456;28;20574;-80
2021/08/31 00:53:09;;;;;;;53.90;27.45;;;;;;;12.02;100.00;94114.59;5072763;28;20437;-80
2021/08/31 00:55:35;;;;;;;47.85;22.83;;;;;;;11.99;100.00;94107.16;5073640;28;20199;-81
2021/08/31 00:58:02;;;;;;;50.63;23.20;;;;;;;11.96;100.00;94108.38;5073682;28;20226;-79
2021/08/31 01:00:28;;;;;;;60.67;25.20;;;;;;;11.90;100.00;94119.59;5073538;28;20221;-81
2021/08/31 01:02:57;;;;;;;52.85;22.80;;;;;;;11.92;100.00;94115.00;5073001;28;20206;-81
2021/08/31 01:05:24;;;;;;;55.40;23.02;;;;;;;11.94;100.00;94117.41;5073327;28;20228;-80
2021/08/31 01:07:52;;;;;;;47.30;22.48;;;;;;;11.92;100.00;94120.22;5073292;28;20199;-80
2021/08/31 01:10:22;;;;;;;53.45;24.33;;;;;;;11.90;100.00;94116.19;5073065;28;20720;-80
2021/08/31 01:12:50;;;;;;;53.75;23.63;;;;;;;11.91;100.00;94123.88;5073346;28;20199;-80
2021/08/31 01:15:18;;;;;;;49.97;23.33;;;;;;;11.92;100.00;94125.47;5072936;28;20252;-80
2021/08/31 01:17:49;;;;;;;48.40;21.97;;;;;;;11.95;100.00;94119.03;5073286;28;20195;-79
2021/08/31 01:20:15;;;;;;;48.35;22.30;;;;;;;11.91;100.00;94123.03;5073130;28;20655;-81
2021/08/31 01:22:42;;;;;;;48.33;21.65;;;;;;;11.93;100.00;94131.53;5072975;28;20543;-82
2021/08/31 01:25:16;;;;;;;46.47;21.80;;;;;;;11.93;100.00;94132.31;5073251;28;20205;-81
2021/08/31 01:27:43;;;;;;;44.75;21.02;;;;;;;11.93;100.00;94131.53;5073228;28;20625;-81
2021/08/31 01:30:10;;;;;;;46.92;21.13;;;;;;;11.96;100.00;94125.88;5073017;28;20253;-80
2021/08/31 01:32:40;;;;;;;41.00;19.88;;;;;;;11.97;100.00;94136.16;5073062;28;20199;-79
2021/08/31 01:35:07;;;;;;;49.55;25.55;;;;;;;11.98;100.00;94134.34;5072055;28;20434;-81
2021/08/31 01:37:33;;;;;;;47.58;21.83;;;;;;;11.92;100.00;94129.91;5073109;28;20230;-81
2021/08/31 01:40:00;;;;;;;47.43;21.47;;;;;;;11.88;100.00;94134.69;5073090;28;20236;-81
2021/08/31 01:42:28;;;;;;;42.47;20.23;;;;;;;11.87;100.00;94129.66;5072279;28;20226;-80
2021/08/31 01:44:54;;;;;;;48.30;20.77;;;;;;;11.89;100.00;94128.47;5072846;28;20241;-81
2021/08/31 01:47:20;;;;;;;50.23;21.00;;;;;;;11.89;100.00;94125.03;5072947;28;20557;-80
2021/08/31 01:49:47;;;;;;;39.00;18.00;;;;;;;11.91;100.00;94128.28;5072672;28;20226;-81
2021/08/31 01:52:13;;;;;;;41.10;18.67;;;;;;;11.88;100.00;94131.28;5073051;28;20199;-80
2021/08/31 01:54:40;;;;;;;32.63;15.50;;;;;;;11.87;100.00;94121.81;5072854;28;20229;-78
2021/08/31 01:57:06;;;;;;;30.60;14.43;;;;;;;11.88;100.00;94128.66;5072913;28;20226;-80
2021/08/31 01:59:35;;;;;;;33.35;15.55;;;;;;;11.86;100.00;94121.00;5072775;28;20701;-81
2021/08/31 02:02:04;;;;;;;35.85;16.77;;;;;;;11.91;100.00;94123.03;5072774;28;20289;-80
2021/08/31 02:04:32;;;;;;;34.77;15.73;;;;;;;11.96;100.00;94125.88;5072632;28;20281;-79
2021/08/31 02:06:58;;;;;;;36.15;15.95;;;;;;;11.97;100.00;94122.25;5072524;28;20597;-81
2021/08/31 02:09:25;;;;;;;36.88;18.17;;;;;;;11.93;100.00;94128.91;5072755;28;20226;-80
2021/08/31 02:11:54;;;;;;;36.37;17.67;;;;;;;11.96;100.00;94124.06;5072641;28;20661;-81
2021/08/31 02:14:20;;;;;;;34.17;16.23;;;;;;;11.96;100.00;94126.69;5072664;28;20202;-80
2021/08/31 02:16:48;;;;;;;39.88;18.38;;;;;;;11.92;100.00;94124.66;5072596;28;20203;-81
2021/08/31 02:19:15;;;;;;;36.67;17.30;;;;;;;11.90;100.00;94126.66;5072490;28;20202;-81
2021/08/31 02:21:41;;;;;;;40.40;17.40;;;;;;;11.94;100.00;94122.66;5072913;28;20549;-80
2021/08/31 02:24:10;;;;;;;37.37;17.97;;;;;;;11.92;100.00;94122.84;5072593;28;20199;-81
2021/08/31 02:26:37;;;;;;;38.00;17.37;;;;;;;11.91;100.00;94118.63;5072484;28;20649;-81
2021/08/31 02:29:04;;;;;;;38.70;18.50;;;;;;;11.94;100.00;94122.66;5076364;28;20257;-80
2021/08/31 02:31:30;;;;;;;38.90;17.83;;;;;;;12.03;100.00;94124.06;5076175;28;20203;-80
2021/08/31 02:33:58;;;;;;;41.53;18.57;;;;;;;11.92;100.00;94125.47;5076475;28;20293;-79
2021/08/31 02:36:25;;;;;;;47.60;20.53;;;;;;;11.91;100.00;94120.41;5076284;28;20199;-79
2021/08/31 02:38:51;;;;;;;48.80;20.03;;;;;;;11.93;100.00;94126.28;5076292;28;20206;-78
2021/08/31 02:41:21;;;;;;;42.58;19.25;;;;;;;11.96;100.00;94133.75;5076148;28;20642;-80
2021/08/31 02:43:47;;;;;;;42.95;19.40;;;;;;;11.96;100.00;94131.13;5076037;28;20222;-80
2021/08/31 02:46:19;;;;;;;40.50;18.90;;;;;;;11.96;100.00;94126.69;5075949;28;20665;-80
2021/08/31 02:48:45;;;;;;;53.10;20.60;;;;;;;11.93;100.00;94131.53;5076125;28;20211;-78
2021/08/31 02:51:13;;;;;;;40.15;19.88;;;;;;;11.88;100.00;94121.63;5076026;28;20705;-79
2021/08/31 02:53:40;;;;;;;49.57;19.50;;;;;;;11.91;100.00;94129.09;5075500;28;20211;-80
2021/08/31 02:56:08;;;;;;;46.03;19.55;;;;;;;11.93;100.00;94128.91;5075955;28;20206;-82
2021/08/31 02:58:35;;;;;;;53.65;25.35;;;;;;;11.89;100.00;94131.09;5074596;28;20936;-79
2021/08/31 03:01:07;;;;;;;45.40;20.87;;;;;;;11.84;100.00;94136.91;5075955;28;20195;-79
2021/08/31 03:03:33;;;;;;;40.27;19.80;;;;;;;11.84;100.00;94136.91;5075807;28;20249;-80
2021/08/31 03:06:00;;;;;;;43.07;19.07;;;;;;;11.87;100.00;94138.31;5075622;28;20215;-81
2021/08/31 03:08:35;;;;;;;37.97;19.87;;;;;;;11.87;100.00;94138.31;5075690;28;20195;-79
2021/08/31 03:11:04;;;;;;;48.30;21.23;;;;;;;11.87;100.00;94142.75;5075498;28;20230;-79
2021/08/31 03:13:30;;;;;;;42.00;19.93;;;;;;;11.87;100.00;94140.13;5075659;28;20212;-78
2021/08/31 03:15:57;;;;;;;44.00;19.70;;;;;;;11.86;100.00;94141.94;5075598;28;20199;-79
2021/08/31 03:18:23;;;;;;;40.37;18.87;;;;;;;11.83;100.00;94142.34;5075390;28;20657;-79
2021/08/31 03:20:52;;;;;;;45.90;20.67;;;;;;;11.80;100.00;94148.75;5075346;28;20657;-79
2021/08/31 03:23:18;;;;;;;42.93;19.53;;;;;;;11.79;100.00;94141.94;5075448;28;20298;-80
2021/08/31 03:25:46;;;;;;;44.97;19.97;;;;;;;11.82;100.00;94144.16;5075298;28;20199;-81
2021/08/31 03:28:14;;;;;;;42.60;20.03;;;;;;;11.75;100.00;94138.09;5075346;28;20244;-80
2021/08/31 03:30:44;;;;;;;41.50;19.73;;;;;;;11.84;100.00;94139.53;5075074;28;20323;-81
2021/08/31 03:33:19;;;;;;;45.77;20.53;;;;;;;11.88;100.00;94139.94;5075299;28;20210;-80
2021/08/31 03:35:45;;;;;;;44.88;23.00;;;;;;;11.79;100.00;94141.09;5074265;28;21108;-79
2021/08/31 03:38:12;;;;;;;47.65;20.15;;;;;;;11.81;100.00;94147.75;5074619;28;20202;-81
2021/08/31 03:40:39;;;;;;;45.87;20.03;;;;;;;11.72;100.00;94141.09;5075253;28;20232;-81
2021/08/31 03:43:12;;;;;;;49.50;22.70;;;;;;;11.73;100.00;94153.19;5074866;28;20654;-80
2021/08/31 03:45:42;;;;;;;47.72;19.88;;;;;;;11.71;100.00;94155.19;5074867;28;20238;-81
2021/08/31 03:48:11;;;;;;;50.85;22.60;;;;;;;11.76;100.00;94160.63;5075119;28;20242;-80
2021/08/31 03:50:37;;;;;;;52.53;21.83;;;;;;;11.76;100.00;94157.22;5074573;28;20230;-81
2021/08/31 03:53:04;;;;;;;52.27;22.80;;;;;;;11.74;100.00;94160.03;5075042;28;20199;-81
2021/08/31 03:55:30;;;;;;;58.08;22.63;;;;;;;11.73;100.00;94158.41;5074715;28;20534;-81
2021/08/31 03:57:57;;;;;;;53.20;22.93;;;;;;;11.72;100.00;94162.03;5074817;28;20203;-79
2021/08/31 04:00:25;;;;;;;53.23;21.97;;;;;;;11.74;100.00;94165.28;5074437;28;20561;-79
2021/08/31 04:02:51;;;;;;;48.47;21.98;;;;;;;11.78;100.00;94165.66;5074537;28;20198;-78
2021/08/31 04:05:18;;;;;;;46.03;20.17;;;;;;;11.74;100.00;94167.88;5074467;28;20210;-79
2021/08/31 04:07:44;;;;;;;52.97;23.17;;;;;;;11.69;100.00;94162.44;5074653;28;20289;-76
2021/08/31 04:10:11;;;;;;;56.23;22.93;;;;;;;11.76;100.00;94158.03;5074473;28;20596;-75
2021/08/31 04:12:39;;;;;;;50.40;22.37;;;;;;;11.75;100.00;94166.06;5074354;28;20198;-77
2021/08/31 04:15:10;;;;;;;52.00;21.67;;;;;;;11.73;100.00;94158.41;5074120;28;20195;-77
2021/08/31 04:17:38;;;;;;;50.90;22.03;;;;;;;11.71;100.00;94165.66;5074312;28;20203;-78
2021/08/31 04:20:06;;;;;;;48.23;20.37;;;;;;;11.71;100.00;94163.03;5074136;28;20203;-78
2021/08/31 04:22:34;;;;;;;52.50;21.97;;;;;;;11.72;100.00;94167.25;5074317;28;20194;-77
2021/08/31 04:25:03;;;;;;;52.10;22.97;;;;;;;11.70;100.00;94169.25;5074167;28;20203;-78
2021/08/31 04:27:32;;;;;;;57.40;22.23;;;;;;;11.76;100.00;94172.91;5074055;28;20715;-77
2021/08/31 04:29:58;;;;;;;50.27;22.23;;;;;;;11.69;100.00;94167.66;5073944;28;20237;-78
2021/08/31 04:32:28;;;;;;;57.93;22.80;;;;;;;11.68;100.00;94171.28;5073870;28;20206;-78
2021/08/31 04:34:58;;;;;;;59.23;22.03;;;;;;;11.69;100.00;94172.91;5074027;28;20226;-75
2021/08/31 04:37:24;;;;;;;54.53;21.17;;;;;;;11.73;100.00;94173.31;5074008;28;20203;-78
2021/08/31 04:39:51;;;;;;;60.47;22.93;;;;;;;11.71;100.00;94164.81;5073965;28;20210;-78
2021/08/31 04:42:17;;;;;;;50.23;21.83;;;;;;;11.69;100.00;94167.66;5073929;28;20213;-79
2021/08/31 04:44:44;;;;;;;61.33;23.03;;;;;;;11.70;100.00;94164.03;5073085;28;20237;-78
2021/08/31 04:47:10;;;;;;;57.73;21.40;;;;;;;11.69;100.00;94170.28;5073609;28;20665;-79
2021/08/31 04:49:37;;;;;;;54.70;23.17;;;;;;;11.73;100.00;94168.88;5073161;28;20204;-79
2021/08/31 04:52:10;;;;;;;59.20;23.30;;;;;;;11.71;100.00;94167.44;5073629;28;20229;-78
2021/08/31 04:54:38;;;;;;;50.70;22.13;;;;;;;11.72;100.00;94172.47;5073505;28;20206;-79
2021/08/31 04:57:05;;;;;;;50.90;20.57;;;;;;;11.69;100.00;94167.66;5073541;28;20238;-80
2021/08/31 04:59:32;;;;;;;52.53;20.70;;;;;;;11.67;100.00;94172.28;5073257;28;20653;-78
2021/08/31 05:01:59;;;;;;;33.57;15.53;;;;;;;11.65;100.00;94179.50;5073565;28;20229;-77
2021/08/31 05:04:29;;;;;;;39.33;17.92;;;;;;;11.69;100.00;94182.53;5073466;28;20210;-76
2021/08/31 05:06:58;;;;;;;40.30;17.37;;;;;;;11.64;100.00;94173.47;5073398;28;20257;-78
2021/08/31 05:09:26;;;;;;;38.33;16.40;;;;;;;11.64;100.00;94181.34;5073353;28;20289;-79
2021/08/31 05:11:52;;;;;;;39.47;17.20;;;;;;;11.66;100.00;94183.75;5073010;28;20696;-78
2021/08/31 05:14:19;;;;;;;43.60;18.50;;;;;;;11.69;100.00;94177.31;5073469;28;20206;-78
2021/08/31 05:16:47;;;;;;;39.93;16.80;;;;;;;11.68;100.00;94186.97;5073407;28;20234;-79
2021/08/31 05:19:17;;;;;;;37.17;16.80;;;;;;;11.68;100.00;94189.59;5073360;28;20293;-79
2021/08/31 05:21:43;;;;;;;37.17;15.57;;;;;;;11.68;100.00;94196.63;5073208;28;20203;-79
2021/08/31 05:24:10;;;;;;;40.33;15.30;;;;;;;11.68;100.00;94191.41;5073110;28;20335;-78
2021/08/31 05:26:39;;;;;;;34.27;15.10;;;;;;;11.71;100.00;94191.81;5072939;28;20194;-79
2021/08/31 05:29:06;;;;;;;36.70;15.45;;;;;;;11.70;100.00;94192.00;5073222;28;20203;-78
2021/08/31 05:31:36;;;;;;;37.87;15.83;;;;;;;11.69;100.00;94188.59;5072970;28;20227;-79
2021/08/31 05:34:02;;;;;;;32.80;15.23;;;;;;;11.72;100.00;94193.41;5073077;28;20564;-78
2021/08/31 05:36:32;;;;;;;30.10;14.82;;;;;;;11.76;100.00;94192.03;5072937;28;20209;-78
2021/08/31 05:38:58;;;;;;;34.90;14.93;;;;;;;11.71;100.00;94186.59;5072846;28;20210;-78
2021/08/31 05:41:25;;;;;;;29.87;15.13;;;;;;;11.75;100.00;94193.03;5073195;28;20205;-77
2021/08/31 05:43:54;;;;;;;38.42;18.00;;;;;;;11.81;100.00;94199.28;5071685;28;20520;-78
2021/08/31 05:46:21;;;;;;;33.45;15.45;;;;;;;11.87;100.00;94205.53;5072953;28;20547;-79
2021/08/31 05:48:47;;;;;;;29.02;13.98;;;;;;;11.90;100.00;94205.13;5072887;28;20198;-78
2021/08/31 05:51:14;;;;;;;27.73;14.02;;;;;;;11.95;100.00;94205.38;5072746;28;20232;-79
2021/08/31 05:53:40;;;;;;;24.08;13.32;;;;;;;11.98;100.00;94203.16;5072680;28;20206;-79
2021/08/31 05:56:09;;;;;;;24.65;13.30;;;;;;;11.96;100.00;94204.38;5072966;28;20206;-80
2021/08/31 05:58:35;;;;;;;24.88;13.10;;;;;;;12.03;100.00;94213.06;5072861;28;20293;-79
2021/08/31 06:01:03;;;;;;;28.92;15.00;;;;;;;12.10;100.00;94210.44;5073306;28;20668;-78
2021/08/31 06:03:33;;;;;;;31.83;15.05;;;;;;;12.11;100.00;94215.47;5076791;28;20202;-78
2021/08/31 06:05:59;;;;;;;31.13;14.68;;;;;;;12.10;100.00;94211.25;5076754;28;20202;-79
2021/08/31 06:08:28;;;;;;;26.90;14.32;;;;;;;12.12;100.00;94214.47;5076618;28;20297;-79
2021/08/31 06:10:58;;;;;;;29.80;14.75;;;;;;;12.21;100.00;94223.75;5076784;28;20269;-79
2021/08/31 06:13:24;;;;;;;26.42;12.77;;;;;;;12.35;100.00;94221.94;5076564;28;20672;-79
2021/08/31 06:15:51;;;;;;;25.65;13.18;;;;;;;12.19;100.00;94224.94;5076503;28;20202;-79
2021/08/31 06:18:20;;;;;;;26.30;12.98;;;;;;;12.32;100.00;94230.22;5076492;28;20206;-80
2021/08/31 06:20:50;;;;;;;22.38;11.68;;;;;;;12.39;100.00;94232.84;5076219;28;20210;-79
2021/08/31 06:23:17;;;;;;;20.80;12.45;;;;;;;12.41;100.00;94233.44;5076553;28;20256;-78
2021/08/31 06:25:50;;;;;;;22.35;12.18;;;;;;;12.32;100.00;94238.09;5076405;28;20205;-77
2021/08/31 06:28:16;;;;;;;18.00;10.27;;;;;;;12.37;100.00;94237.47;5076398;28;20294;-80
2021/08/31 06:30:45;;;;;;;18.98;10.57;;;;;;;12.30;100.00;94241.88;5076335;28;20322;-79
2021/08/31 06:33:12;;;;;;;22.05;10.93;;;;;;;12.20;100.00;94235.22;5076267;28;20289;-79
2021/08/31 06:35:40;;;;;;;25.85;11.80;;;;;;;12.18;100.00;94245.09;5076533;28;20238;-78
2021/08/31 06:38:08;;;;;;;20.67;11.32;;;;;;;12.16;100.00;94248.91;5076320;28;20213;-80
2021/08/31 06:40:36;;;;;;;29.38;15.43;;;;;;;12.12;100.00;94240.63;5075437;28;20293;-78
2021/08/31 06:43:03;;;;;;;27.88;14.38;;;;;;;12.15;100.00;94248.09;5076062;28;20561;-77
2021/08/31 06:45:32;;;;;;;25.52;14.65;;;;;;;12.16;100.00;94249.72;5075775;28;20257;-78
2021/08/31 06:47:58;;;;;;;24.17;13.65;;;;;;;12.19;100.00;94253.72;5075790;28;20206;-79
2021/08/31 06:50:25;;;;;;;27.80;13.60;;;;;;;12.25;100.00;94255.56;5075450;28;20202;-77
2021/08/31 06:52:55;;;;;;;27.42;14.75;;;;;;;12.26;100.00;94253.75;5075836;28;20253;-79
2021/08/31 06:55:24;;;;;;;27.98;14.30;;;;;;;12.20;100.00;94258.78;5076005;28;20238;-80
2021/08/31 06:57:51;;;;;;;25.45;13.10;;;;;;;12.20;100.00;94258.78;5075843;28;20199;-79
2021/08/31 07:00:20;;;;;;;25.35;13.07;;;;;;;12.09;100.00;94269.84;5075674;28;20195;-80
2021/08/31 07:02:50;;;;;;;24.63;12.03;;;;;;;12.09;100.00;94266.41;5075916;28;20199;-80
2021/08/31 07:05:21;;;;;;;21.05;11.77;;;;;;;12.12;100.00;94266.81;5075874;28;20203;-78
2021/08/31 07:07:48;;;;;;;15.23;8.90;;;;;;;12.09;100.00;94267.22;5075605;28;20778;-78
2021/08/31 07:10:17;;;;;;;16.92;9.18;;;;;;;12.15;100.00;94271.66;5075630;28;20586;-78
2021/08/31 07:12:44;;;;;;;15.63;8.40;;;;;;;12.18;100.00;94266.03;5074589;28;20238;-77
2021/08/31 07:15:12;;;;;;;16.45;7.60;;;;;;;12.12;100.00;94272.03;5075414;28;20203;-78
2021/08/31 07:17:41;;;;;;;14.05;7.28;;;;;;;12.10;100.00;94273.25;5075646;28;20201;-78
2021/08/31 07:20:13;;;;;;;12.88;7.85;;;;;;;12.24;100.00;94274.09;5075350;28;20805;-78
2021/08/31 07:22:44;;;;;;;17.15;9.40;;;;;;;12.29;100.00;94276.91;5075396;28;20233;-78
2021/08/31 07:25:11;;;;;;;14.75;8.15;;;;;;;12.29;100.00;94275.13;5075179;28;20205;-77
2021/08/31 07:27:43;;;;;;;17.20;10.38;;;;;;;12.29;100.00;94274.28;5075454;28;20199;-77
2021/08/31 07:30:21;;;;;;;14.38;9.25;;;;;;;12.26;100.00;94278.13;5075166;28;20297;-79
2021/08/31 07:32:48;;;;;;;17.95;9.93;;;;;;;12.26;100.00;94288.59;5075245;28;20229;-77
2021/08/31 07:35:14;;;;;;;17.88;10.23;;;;;;;12.23;100.00;94281.16;5074913;28;20649;-79
2021/08/31 07:37:48;;;;;;;20.10;11.15;;;;;;;12.42;100.00;94279.56;5073301;28;20209;-76
2021/08/31 07:40:18;;;;;;;18.10;10.48;;;;;;;12.55;100.00;94282.19;5073681;28;20546;-77
2021/08/31 07:42:48;;;;;;;20.40;10.82;;;;;;;12.78;100.00;94281.00;5073859;28;20203;-78
2021/08/31 07:45:15;;;;;;;18.20;10.60;;;;;;;13.09;100.00;94297.94;5073558;28;20226;-77
2021/08/31 07:47:45;;;;;;;17.30;9.45;;;;;;;13.37;100.00;94292.47;5073649;28;20194;-77
2021/08/31 07:50:14;;;;;;;11.25;7.85;;;;;;;13.21;100.00;94290.28;5073687;28;20290;-78
2021/08/31 07:52:46;;;;;;;13.55;7.78;;;;;;;13.24;100.00;94287.22;5074664;28;20226;-79
2021/08/31 07:55:16;;;;;;;12.25;7.55;;;;;;;13.49;100.00;94303.19;5074954;28;20210;-78
2021/08/31 07:57:45;;;;;;;12.77;8.02;;;;;;;13.66;100.00;94301.72;5074678;28;20202;-78
2021/08/31 08:00:17;;;;;;;13.48;7.95;;;;;;;13.69;100.00;94301.31;5074642;28;20202;-77
2021/08/31 08:02:43;;;;;;;14.55;8.18;;;;;;;13.93;100.00;94303.44;5074605;28;20204;-78
2021/08/31 08:05:12;;;;;;;12.82;7.72;;;;;;;13.97;100.00;94304.63;5074692;28;20213;-79
2021/08/31 08:07:41;;;;;;;12.63;6.40;;;;;;;14.23;100.00;94308.97;5074675;28;20203;-77
2021/08/31 08:10:12;;;;;;;10.07;5.93;;;;;;;14.46;100.00;94312.91;5074532;28;20199;-79
2021/08/31 08:12:39;;;;;;;9.63;5.80;;;;;;;14.54;100.00;94310.81;5074389;28;20348;-77
2021/08/31 08:15:09;;;;;;;10.05;6.28;;;;;;;14.78;100.00;94316.38;5074233;28;20228;-80
2021/08/31 08:17:37;;;;;;;9.00;6.13;;;;;;;14.82;100.00;94311.47;5074255;28;20203;-77
2021/08/31 08:20:07;;;;;;;10.68;5.93;;;;;;;14.88;100.00;94321.16;5074579;28;20290;-78
2021/08/31 08:22:37;;;;;;;7.93;5.55;;;;;;;14.88;100.00;94315.91;5074148;28;20564;-78
2021/08/31 08:25:04;;;;;;;8.23;5.55;;;;;;;14.97;100.00;94319.84;5073096;28;20209;-78
2021/08/31 08:27:30;;;;;;;8.32;5.55;;;;;;;15.08;100.00;94313.91;5074120;28;20557;-77
2021/08/31 08:29:57;;;;;;;8.15;5.57;;;;;;;15.17;100.00;94317.88;5074102;28;20268;-79
2021/08/31 08:32:23;;;;;;;8.55;4.75;;;;;;;15.81;100.00;94314.28;5073813;28;20230;-78
2021/08/31 08:34:51;;;;;;;9.15;5.60;;;;;;;16.56;100.00;94318.44;5074089;28;20208;-79
2021/08/31 08:37:18;;;;;;;8.57;5.28;;;;;;;16.12;100.00;94315.97;5073804;28;20210;-78
2021/08/31 08:39:45;;;;;;;7.35;4.32;;;;;;;15.89;100.00;94314.78;5073839;28;20293;-80
2021/08/31 08:42:13;;;;;;;10.18;5.70;;;;;;;16.01;100.00;94312.22;5073858;28;20206;-78
2021/08/31 08:44:39;;;;;;;5.72;4.10;;;;;;;15.77;100.00;94323.63;5073485;28;20738;-77
2021/08/31 08:47:06;;;;;;;8.80;4.53;;;;;;;15.42;100.00;94327.59;5073412;28;20281;-78
2021/08/31 08:49:34;;;;;;;9.63;4.72;;;;;;;15.71;100.00;94322.66;5073809;28;20206;-79
2021/08/31 08:52:03;;;;;;;9.20;4.43;;;;;;;15.57;100.00;94324.63;5073825;28;20321;-80
2021/08/31 08:54:31;;;;;;;11.00;4.65;;;;;;;15.35;100.00;94326.84;5073548;28;20206;-80
2021/08/31 08:56:58;;;;;;;8.88;4.53;;;;;;;15.65;100.00;94323.53;5073303;28;20203;-81
2021/08/31 08:59:25;;;;;;;10.43;4.57;;;;;;;15.91;100.00;94328.53;5073644;28;20198;-81
2021/08/31 09:01:53;;;;;;;6.65;4.45;;;;;;;16.25;100.00;94336.88;5073693;28;20205;-80
2021/08/31 09:04:21;;;;;;;8.00;3.60;;;;;;;16.54;100.00;94333.69;5073494;28;20632;-80
2021/08/31 09:06:50;;;;;;;6.03;3.70;;;;;;;16.14;100.00;94334.16;5073398;28;20319;-81
2021/08/31 09:09:21;;;;;;;8.50;4.97;;;;;;;16.00;100.00;94339.56;5073297;28;20199;-79
2021/08/31 09:11:50;;;;;;;6.75;4.00;;;;;;;16.23;100.00;94336.25;5073245;28;20724;-81
2021/08/31 09:14:27;;;;;;;6.53;3.95;;;;;;;15.94;100.00;94339.66;5073331;28;20268;-82
2021/08/31 09:16:57;;;;;;;6.10;3.65;;;;;;;15.96;100.00;94340.25;5073368;28;20202;-81
2021/08/31 09:19:31;;;;;;;9.30;3.55;;;;;;;16.25;100.00;94338.69;5073299;28;20207;-79
2021/08/31 09:22:18;;;;;;;5.70;3.58;;;;;;;16.35;100.00;94335.53;5073208;28;20201;-81
2021/08/31 09:25:00;;;;;;;7.35;3.20;;;;;;;16.71;100.00;94336.47;5073201;28;20199;-81
2021/08/31 09:27:34;;;;;;;5.50;2.97;;;;;;;16.73;100.00;94335.22;5073114;28;20683;-81
2021/08/31 09:30:19;;;;;;;8.05;3.15;;;;;;;16.19;100.00;94336.97;5073040;28;20205;-79
2021/08/31 09:33:03;;;;;;;5.18;3.50;;;;;;;15.97;100.00;94334.78;5071786;28;20253;-82
2021/08/31 09:35:35;;;;;;;4.97;3.60;;;;;;;15.91;100.00;94335.63;5072392;28;20209;-80
2021/08/31 09:38:04;;;;;;;5.07;3.70;;;;;;;15.70;100.00;94334.19;5072789;28;20199;-81
2021/08/31 09:40:37;;;;;;;7.38;3.85;;;;;;;15.84;100.00;94335.72;5072305;28;20289;-81
2021/08/31 09:43:09;;;;;;;7.45;4.05;;;;;;;15.51;100.00;94343.91;5073191;28;20229;-81
2021/08/31 09:45:40;;;;;;;5.07;3.78;;;;;;;15.38;100.00;94349.28;5072673;28;20227;-79
2021/08/31 09:48:10;;;;;;;5.20;3.17;;;;;;;15.92;100.00;94347.78;5072837;28;20286;-81
2021/08/31 09:50:38;;;;;;;9.02;3.35;;;;;;;16.60;100.00;94345.94;5072790;28;20206;-81
2021/08/31 09:53:12;;;;;;;9.00;3.50;;;;;;;16.91;100.00;94352.06;5072716;28;20253;-80
2021/08/31 09:55:41;;;;;;;6.03;3.60;;;;;;;17.16;100.00;94346.59;5072956;28;20202;-81
2021/08/31 09:58:15;;;;;;;4.82;3.17;;;;;;;17.57;100.00;94353.63;5072940;28;20194;-80
2021/08/31 10:00:44;;;;;;;6.22;3.55;;;;;;;17.46;100.00;94351.78;5072290;28;20442;-80
2021/08/31 10:03:11;;;;;;;5.80;3.25;;;;;;;17.13;100.00;94355.75;5072769;28;20203;-78
2021/08/31 10:05:39;;;;;;;5.10;3.38;;;;;;;17.17;100.00;94358.78;5072764;28;20205;-80
2021/08/31 10:08:07;;;;;;;5.47;3.53;;;;;;;16.80;100.00;94366.75;5072907;28;20203;-78
2021/08/31 10:10:38;;;;;;;8.25;3.40;;;;;;;16.54;100.00;94360.03;5072626;28;20245;-80
2021/08/31 10:13:11;;;;;;;5.97;3.28;;;;;;;16.54;100.00;94362.69;5072623;28;20230;-80
2021/08/31 10:15:46;;;;;;;6.32;4.10;;;;;;;16.34;100.00;94370.84;5072812;28;20623;-78
2021/08/31 10:18:13;;;;;;;5.78;3.47;;;;;;;16.04;100.00;94361.81;5072520;28;20198;-80
2021/08/31 10:20:46;;;;;;;6.43;3.25;;;;;;;15.96;100.00;94366.59;5072950;28;20203;-77
2021/08/31 10:23:16;;;;;;;7.57;4.05;;;;;;;15.36;100.00;94367.91;5057249;28;20211;-78
2021/08/31 10:25:43;;;;;;;6.45;4.07;;;;;;;15.51;100.00;94373.66;5052515;28;20285;-79
2021/08/31 10:28:28;;;;;;;7.32;3.70;;;;;;;15.63;100.00;94370.31;5052354;28;20242;-79
2021/08/31 10:30:57;;;;;;;6.00;3.58;;;;;;;15.94;100.00;94368.63;5052533;28;20200;-78
2021/08/31 10:33:35;;;;;;;5.43;3.65;;;;;;;16.20;100.00;94372.78;5051766;28;20231;-77
2021/08/31 10:36:08;;;;;;;5.55;3.33;;;;;;;16.50;100.00;94374.66;5052492;28;20199;-78
2021/08/31 10:38:53;;;;;;;5.63;3.25;;;;;;;16.38;100.00;94377.25;5053734;28;20251;-79
2021/08/31 10:41:49;;;;;;;6.25;4.10;;;;;;;16.72;100.00;94373.19;5051582;28;20444;-80
2021/08/31 10:44:40;;;;;;;5.90;3.75;;;;;;;16.81;100.00;94363.13;5052096;28;20729;-80
2021/08/31 10:47:31;;;;;;;5.68;3.75;;;;;;;17.04;100.00;94374.78;5066030;28;20569;-80
2021/08/31 10:50:25;;;;;;;5.35;3.67;;;;;;;16.88;100.00;94371.75;5075587;28;20203;-79
2021/08/31 10:55:45;;;;;;;6.97;3.63;;;;;;;16.75;100.00;94371.91;5068636;28;20206;-80
2021/08/31 10:58:47;;;;;;;7.15;4.03;;;;;;;16.20;100.00;94368.31;5076018;28;20287;-80
2021/08/31 11:01:19;;;;;;;5.70;3.90;;;;;;;15.99;100.00;94374.84;5075792;28;20240;-78
2021/08/31 11:03:47;;;;;;;5.72;3.75;;;;;;;16.25;100.00;94368.50;5075796;28;20285;-77
2021/08/31 11:06:22;;;;;;;6.55;4.03;;;;;;;16.01;100.00;94362.25;5075767;28;20234;-79
2021/08/31 11:09:22;;;;;;;6.10;3.67;;;;;;;16.23;100.00;94370.53;5075560;28;20202;-80
2021/08/31 11:12:17;;;;;;;5.75;3.40;;;;;;;16.32;100.00;94368.41;5075523;28;20206;-79
2021/08/31 11:14:56;;;;;;;11.05;3.45;;;;;;;16.49;100.00;94375.69;5075698;28;20237;-80
2021/08/31 11:17:38;;;;;;;4.82;3.20;;;;;;;16.98;100.00;94374.66;5075647;28;20656;-80
2021/08/31 11:20:30;;;;;;;5.28;3.25;;;;;;;17.24;100.00;94364.75;5075509;28;20205;-81
2021/08/31 11:23:08;;;;;;;7.65;3.15;;;;;;;17.43;98.81;94369.94;5051447;28;20234;-81
2021/08/31 11:25:42;;;;;;;7.28;3.97;;;;;;;16.74;97.77;94375.59;5075344;28;20228;-80
2021/08/31 11:28:14;;;;;;;9.88;4.13;;;;;;;17.11;98.97;94376.28;5075258;28;20213;-80